Lawn, Pennsylvania
Current Conditions -  °F | °C
As of 3:56 PM on Thursday 23 Oct 2014 (Local Time) from KMDT Reporting Station
Broken Clouds Broken Clouds  
Wind Chill: 60°   Ceiling: 4200
Heat Index: 60°   Visibility: 10mi
Dew Point: 44°   Wind: 18mph
Humidity: 55%   Direction: 340°NNW
Pressure: 29.83"   Gusts: 25mph
Location:  40.22°N, 76.54°W
Report Text: KMDT 231956Z 34016G22KT 10SM BKN042 BKN060 BKN100 16/07 A2983 RMK AO2 PK WND 33032/1903 SLP104 T01560067
Loading
Personal Weather Stations






























Interactive Weather Map
Tropical Storm Tracking
New forecast layout! Learn more

10-Day Weather Forecast

Advertisements
Track Severe Weather on mobile